sensor_id;sensor_type;location;lat;lon;timestamp;temperature;humidity
14359;DHT22;7263;49.418;11.064;2024-03-06T00:02:05;6.90;99.90
14359;DHT22;7263;49.418;11.064;2024-03-06T00:04:37;6.90;99.90
14359;DHT22;7263;49.418;11.064;2024-03-06T00:07:04;6.90;99.90
14359;DHT22;7263;49.418;11.064;2024-03-06T00:09:34;6.90;99.90
14359;DHT22;7263;49.418;11.064;2024-03-06T00:12:07;6.90;99.90
14359;DHT22;7263;49.418;11.064;2024-03-06T00:14:35;6.90;99.90
14359;DHT22;7263;49.418;11.064;2024-03-06T00:17:02;7.00;99.90
14359;DHT22;7263;49.418;11.064;2024-03-06T00:19:30;7.00;99.90
14359;DHT22;7263;49.418;11.064;2024-03-06T00:22:06;7.00;99.90
14359;DHT22;7263;49.418;11.064;2024-03-06T00:24:36;7.00;99.90
14359;DHT22;7263;49.418;11.064;2024-03-06T00:27:06;7.00;99.90
14359;DHT22;7263;49.418;11.064;2024-03-06T00:29:40;6.90;99.90
14359;DHT22;7263;49.418;11.064;2024-03-06T00:32:10;7.00;99.90
14359;DHT22;7263;49.418;11.064;2024-03-06T00:34:37;6.90;99.90
14359;DHT22;7263;49.418;11.064;2024-03-06T00:37:05;6.90;99.90
14359;DHT22;7263;49.418;11.064;2024-03-06T00:39:52;7.00;99.90
14359;DHT22;7263;49.418;11.064;2024-03-06T00:42:25;7.00;99.90
14359;DHT22;7263;49.418;11.064;2024-03-06T00:44:52;6.90;99.90
14359;DHT22;7263;49.418;11.064;2024-03-06T00:47:19;6.90;99.90
14359;DHT22;7263;49.418;11.064;2024-03-06T00:49:54;7.00;99.90
14359;DHT22;7263;49.418;11.064;2024-03-06T00:52:22;2.80;99.90
14359;DHT22;7263;49.418;11.064;2024-03-06T00:54:52;6.90;99.90
14359;DHT22;7263;49.418;11.064;2024-03-06T00:57:33;6.90;99.90
14359;DHT22;7263;49.418;11.064;2024-03-06T01:00:17;6.90;99.90
14359;DHT22;7263;49.418;11.064;2024-03-06T01:02:47;6.90;99.90
14359;DHT22;7263;49.418;11.064;2024-03-06T01:05:17;6.90;99.90
14359;DHT22;7263;49.418;11.064;2024-03-06T01:07:45;6.80;99.90
14359;DHT22;7263;49.418;11.064;2024-03-06T01:10:11;6.80;99.90
14359;DHT22;7263;49.418;11.064;2024-03-06T01:12:38;6.80;99.90
14359;DHT22;7263;49.418;11.064;2024-03-06T01:15:16;6.80;99.90
14359;DHT22;7263;49.418;11.064;2024-03-06T01:17:43;6.80;99.90
14359;DHT22;7263;49.418;11.064;2024-03-06T01:20:10;6.80;99.90
14359;DHT22;7263;49.418;11.064;2024-03-06T01:22:42;6.80;99.90
14359;DHT22;7263;49.418;11.064;2024-03-06T01:25:12;6.80;99.90
14359;DHT22;7263;49.418;11.064;2024-03-06T01:27:40;6.80;99.90
14359;DHT22;7263;49.418;11.064;2024-03-06T01:30:10;6.80;99.90
14359;DHT22;7263;49.418;11.064;2024-03-06T01:32:40;6.80;99.90
14359;DHT22;7263;49.418;11.064;2024-03-06T01:35:07;6.80;99.90
14359;DHT22;7263;49.418;11.064;2024-03-06T01:37:34;6.80;99.90
14359;DHT22;7263;49.418;11.064;2024-03-06T01:40:01;6.80;99.90
14359;DHT22;7263;49.418;11.064;2024-03-06T01:42:31;6.80;99.90
14359;DHT22;7263;49.418;11.064;2024-03-06T01:45:01;6.80;99.90
14359;DHT22;7263;49.418;11.064;2024-03-06T01:47:35;6.80;99.90
14359;DHT22;7263;49.418;11.064;2024-03-06T01:50:03;6.80;99.90
14359;DHT22;7263;49.418;11.064;2024-03-06T01:52:42;6.80;99.90
14359;DHT22;7263;49.418;11.064;2024-03-06T01:55:09;6.80;99.90
14359;DHT22;7263;49.418;11.064;2024-03-06T01:57:38;6.90;99.90
14359;DHT22;7263;49.418;11.064;2024-03-06T02:00:08;6.90;99.90
14359;DHT22;7263;49.418;11.064;2024-03-06T02:02:41;6.90;99.90
14359;DHT22;7263;49.418;11.064;2024-03-06T02:05:08;6.90;99.90
14359;DHT22;7263;49.418;11.064;2024-03-06T02:07:47;6.80;99.90
14359;DHT22;7263;49.418;11.064;2024-03-06T02:10:14;6.90;99.90
14359;DHT22;7263;49.418;11.064;2024-03-06T02:12:44;6.80;99.90
14359;DHT22;7263;49.418;11.064;2024-03-06T02:15:17;6.80;99.90
14359;DHT22;7263;49.418;11.064;2024-03-06T02:18:07;6.90;99.90
14359;DHT22;7263;49.418;11.064;2024-03-06T02:20:38;6.80;99.90
14359;DHT22;7263;49.418;11.064;2024-03-06T02:23:05;6.80;99.90
14359;DHT22;7263;49.418;11.064;2024-03-06T02:25:37;6.80;99.90
14359;DHT22;7263;49.418;11.064;2024-03-06T02:28:04;6.80;99.90
14359;DHT22;7263;49.418;11.064;2024-03-06T02:30:34;6.80;99.90
14359;DHT22;7263;49.418;11.064;2024-03-06T02:33:02;6.80;99.90
14359;DHT22;7263;49.418;11.064;2024-03-06T02:35:29;6.70;99.90
14359;DHT22;7263;49.418;11.064;2024-03-06T02:38:00;6.80;99.90
14359;DHT22;7263;49.418;11.064;2024-03-06T02:40:30;6.80;99.90
14359;DHT22;7263;49.418;11.064;2024-03-06T02:42:57;6.70;99.90
14359;DHT22;7263;49.418;11.064;2024-03-06T02:45:27;6.80;99.90
14359;DHT22;7263;49.418;11.064;2024-03-06T02:47:54;6.70;99.90
14359;DHT22;7263;49.418;11.064;2024-03-06T02:50:37;6.80;99.90
14359;DHT22;7263;49.418;11.064;2024-03-06T02:53:14;6.80;99.90
14359;DHT22;7263;49.418;11.064;2024-03-06T02:55:45;6.80;99.90
14359;DHT22;7263;49.418;11.064;2024-03-06T02:58:12;6.80;99.90
14359;DHT22;7263;49.418;11.064;2024-03-06T03:00:42;6.80;99.90
14359;DHT22;7263;49.418;11.064;2024-03-06T03:03:13;6.80;99.90
14359;DHT22;7263;49.418;11.064;2024-03-06T03:05:52;6.80;99.90
14359;DHT22;7263;49.418;11.064;2024-03-06T03:08:20;6.80;99.90
14359;DHT22;7263;49.418;11.064;2024-03-06T03:10:47;6.80;99.90
14359;DHT22;7263;49.418;11.064;2024-03-06T03:13:14;6.80;99.90
14359;DHT22;7263;49.418;11.064;2024-03-06T03:15:57;6.80;99.90
14359;DHT22;7263;49.418;11.064;2024-03-06T03:18:27;6.80;99.90
14359;DHT22;7263;49.418;11.064;2024-03-06T03:20:54;6.80;99.90
14359;DHT22;7263;49.418;11.064;2024-03-06T03:23:25;6.90;99.90
14359;DHT22;7263;49.418;11.064;2024-03-06T03:25:52;6.80;99.90
14359;DHT22;7263;49.418;11.064;2024-03-06T03:28:21;6.70;99.90
14359;DHT22;7263;49.418;11.064;2024-03-06T03:30:48;6.70;99.90
14359;DHT22;7263;49.418;11.064;2024-03-06T03:33:17;6.70;99.90
14359;DHT22;7263;49.418;11.064;2024-03-06T03:35:44;6.70;99.90
14359;DHT22;7263;49.418;11.064;2024-03-06T03:38:11;6.80;99.90
14359;DHT22;7263;49.418;11.064;2024-03-06T03:40:41;6.70;99.90
14359;DHT22;7263;49.418;11.064;2024-03-06T03:43:13;6.70;99.90
14359;DHT22;7263;49.418;11.064;2024-03-06T03:45:40;6.70;99.90
14359;DHT22;7263;49.418;11.064;2024-03-06T03:48:07;6.80;99.90
14359;DHT22;7263;49.418;11.064;2024-03-06T03:50:34;6.70;99.90
14359;DHT22;7263;49.418;11.064;2024-03-06T03:53:00;6.80;99.90
14359;DHT22;7263;49.418;11.064;2024-03-06T03:55:27;6.80;99.90
14359;DHT22;7263;49.418;11.064;2024-03-06T03:57:57;6.80;99.90
14359;DHT22;7263;49.418;11.064;2024-03-06T04:00:30;6.70;99.90
14359;DHT22;7263;49.418;11.064;2024-03-06T04:02:59;6.80;99.90
14359;DHT22;7263;49.418;11.064;2024-03-06T04:05:30;6.80;99.90
14359;DHT22;7263;49.418;11.064;2024-03-06T04:07:58;6.80;99.90
14359;DHT22;7263;49.418;11.064;2024-03-06T04:10:24;6.80;99.90
14359;DHT22;7263;49.418;11.064;2024-03-06T04:12:55;6.70;99.90
14359;DHT22;7263;49.418;11.064;2024-03-06T04:15:25;6.70;99.90
14359;DHT22;7263;49.418;11.064;2024-03-06T04:17:55;6.80;99.90
14359;DHT22;7263;49.418;11.064;2024-03-06T04:20:21;6.70;99.90
14359;DHT22;7263;49.418;11.064;2024-03-06T04:22:51;6.80;99.90
14359;DHT22;7263;49.418;11.064;2024-03-06T04:25:18;6.70;99.90
14359;DHT22;7263;49.418;11.064;2024-03-06T04:30:43;6.70;99.90
14359;DHT22;7263;49.418;11.064;2024-03-06T04:33:12;6.70;99.90
14359;DHT22;7263;49.418;11.064;2024-03-06T04:35:43;6.70;99.90
14359;DHT22;7263;49.418;11.064;2024-03-06T04:38:13;6.80;99.90
14359;DHT22;7263;49.418;11.064;2024-03-06T04:40:40;6.70;99.90
14359;DHT22;7263;49.418;11.064;2024-03-06T04:43:10;6.70;99.90
14359;DHT22;7263;49.418;11.064;2024-03-06T04:45:44;6.80;99.90
14359;DHT22;7263;49.418;11.064;2024-03-06T04:48:14;6.70;99.90
14359;DHT22;7263;49.418;11.064;2024-03-06T04:50:43;6.80;99.90
14359;DHT22;7263;49.418;11.064;2024-03-06T04:53:13;6.80;99.90
14359;DHT22;7263;49.418;11.064;2024-03-06T04:55:45;6.70;99.90
14359;DHT22;7263;49.418;11.064;2024-03-06T04:58:12;6.80;99.90
14359;DHT22;7263;49.418;11.064;2024-03-06T05:00:51;6.80;99.90
14359;DHT22;7263;49.418;11.064;2024-03-06T05:03:21;6.90;99.90
14359;DHT22;7263;49.418;11.064;2024-03-06T05:05:53;6.70;99.90
14359;DHT22;7263;49.418;11.064;2024-03-06T05:08:20;6.70;99.90
14359;DHT22;7263;49.418;11.064;2024-03-06T05:10:52;6.70;99.90
14359;DHT22;7263;49.418;11.064;2024-03-06T05:13:24;6.70;99.90
14359;DHT22;7263;49.418;11.064;2024-03-06T05:15:54;6.70;99.90
14359;DHT22;7263;49.418;11.064;2024-03-06T05:18:27;6.70;99.90
14359;DHT22;7263;49.418;11.064;2024-03-06T05:21:00;6.60;99.90
14359;DHT22;7263;49.418;11.064;2024-03-06T05:23:29;6.60;99.90
14359;DHT22;7263;49.418;11.064;2024-03-06T05:26:06;6.60;99.90
14359;DHT22;7263;49.418;11.064;2024-03-06T05:28:39;6.60;99.90
14359;DHT22;7263;49.418;11.064;2024-03-06T05:31:25;6.60;99.90
14359;DHT22;7263;49.418;11.064;2024-03-06T05:33:52;6.60;99.90
14359;DHT22;7263;49.418;11.064;2024-03-06T05:36:22;6.60;99.90
14359;DHT22;7263;49.418;11.064;2024-03-06T05:38:54;6.50;99.90
14359;DHT22;7263;49.418;11.064;2024-03-06T05:43:48;6.50;99.90
14359;DHT22;7263;49.418;11.064;2024-03-06T05:46:15;6.50;99.90
14359;DHT22;7263;49.418;11.064;2024-03-06T05:48:44;6.50;99.90
14359;DHT22;7263;49.418;11.064;2024-03-06T05:51:13;6.50;99.90
14359;DHT22;7263;49.418;11.064;2024-03-06T05:53:40;6.60;99.90
14359;DHT22;7263;49.418;11.064;2024-03-06T05:56:08;6.50;99.90
14359;DHT22;7263;49.418;11.064;2024-03-06T05:58:37;6.60;99.90
14359;DHT22;7263;49.418;11.064;2024-03-06T06:01:05;6.60;99.90
14359;DHT22;7263;49.418;11.064;2024-03-06T06:03:33;6.60;99.90
14359;DHT22;7263;49.418;11.064;2024-03-06T06:06:05;6.60;99.90
14359;DHT22;7263;49.418;11.064;2024-03-06T06:08:32;6.70;99.90
14359;DHT22;7263;49.418;11.064;2024-03-06T06:10:59;6.70;99.90
14359;DHT22;7263;49.418;11.064;2024-03-06T06:13:25;6.80;99.90
14359;DHT22;7263;49.418;11.064;2024-03-06T06:15:54;6.80;99.90
14359;DHT22;7263;49.418;11.064;2024-03-06T06:18:21;6.90;99.90
14359;DHT22;7263;49.418;11.064;2024-03-06T06:20:48;6.90;99.90
14359;DHT22;7263;49.418;11.064;2024-03-06T06:23:16;7.00;99.90
14359;DHT22;7263;49.418;11.064;2024-03-06T06:25:43;7.00;99.90
14359;DHT22;7263;49.418;11.064;2024-03-06T06:28:12;7.10;99.90
14359;DHT22;7263;49.418;11.064;2024-03-06T06:30:39;7.10;99.90
14359;DHT22;7263;49.418;11.064;2024-03-06T06:33:07;7.10;99.90
14359;DHT22;7263;49.418;11.064;2024-03-06T06:35:34;7.20;99.90
14359;DHT22;7263;49.418;11.064;2024-03-06T06:38:01;7.20;99.90
14359;DHT22;7263;49.418;11.064;2024-03-06T06:40:29;7.20;99.90
14359;DHT22;7263;49.418;11.064;2024-03-06T06:43:01;7.20;99.90
14359;DHT22;7263;49.418;11.064;2024-03-06T06:45:27;7.30;99.90
14359;DHT22;7263;49.418;11.064;2024-03-06T06:47:54;7.40;99.90
14359;DHT22;7263;49.418;11.064;2024-03-06T06:50:21;7.40;99.90
14359;DHT22;7263;49.418;11.064;2024-03-06T06:52:54;7.40;99.90
14359;DHT22;7263;49.418;11.064;2024-03-06T06:55:24;7.50;99.90
14359;DHT22;7263;49.418;11.064;2024-03-06T06:58:03;7.50;99.90
14359;DHT22;7263;49.418;11.064;2024-03-06T07:00:31;7.60;99.90
14359;DHT22;7263;49.418;11.064;2024-03-06T07:02:59;7.60;99.90
14359;DHT22;7263;49.418;11.064;2024-03-06T07:05:35;7.60;99.90
14359;DHT22;7263;49.418;11.064;2024-03-06T07:08:02;7.70;99.90
14359;DHT22;7263;49.418;11.064;2024-03-06T07:10:29;7.70;99.90
14359;DHT22;7263;49.418;11.064;2024-03-06T07:12:57;7.70;99.90
14359;DHT22;7263;49.418;11.064;2024-03-06T07:15:24;7.70;99.90
14359;DHT22;7263;49.418;11.064;2024-03-06T07:17:56;7.70;99.90
14359;DHT22;7263;49.418;11.064;2024-03-06T07:20:26;7.70;99.90
14359;DHT22;7263;49.418;11.064;2024-03-06T07:22:54;7.70;99.90
14359;DHT22;7263;49.418;11.064;2024-03-06T07:25:27;7.70;99.90
14359;DHT22;7263;49.418;11.064;2024-03-06T07:27:53;7.70;99.90
14359;DHT22;7263;49.418;11.064;2024-03-06T07:30:22;7.70;99.90
14359;DHT22;7263;49.418;11.064;2024-03-06T07:32:48;7.80;99.90
14359;DHT22;7263;49.418;11.064;2024-03-06T07:35:19;7.80;99.90
14359;DHT22;7263;49.418;11.064;2024-03-06T07:38:02;7.80;99.90
14359;DHT22;7263;49.418;11.064;2024-03-06T07:40:32;7.80;99.90
14359;DHT22;7263;49.418;11.064;2024-03-06T07:43:05;7.80;99.90
14359;DHT22;7263;49.418;11.064;2024-03-06T07:45:39;7.80;99.90
14359;DHT22;7263;49.418;11.064;2024-03-06T07:48:06;7.70;99.90
14359;DHT22;7263;49.418;11.064;2024-03-06T07:50:38;7.70;99.90
14359;DHT22;7263;49.418;11.064;2024-03-06T07:53:11;7.80;99.90
14359;DHT22;7263;49.418;11.064;2024-03-06T07:55:44;7.90;99.90
14359;DHT22;7263;49.418;11.064;2024-03-06T07:58:11;7.80;99.90
14359;DHT22;7263;49.418;11.064;2024-03-06T08:00:48;8.00;99.90
14359;DHT22;7263;49.418;11.064;2024-03-06T08:03:18;7.90;99.90
14359;DHT22;7263;49.418;11.064;2024-03-06T08:05:51;8.00;99.90
14359;DHT22;7263;49.418;11.064;2024-03-06T08:08:21;8.10;99.90
14359;DHT22;7263;49.418;11.064;2024-03-06T08:13:15;8.10;99.90
14359;DHT22;7263;49.418;11.064;2024-03-06T08:15:44;8.20;99.90
14359;DHT22;7263;49.418;11.064;2024-03-06T08:18:18;8.30;99.90
14359;DHT22;7263;49.418;11.064;2024-03-06T08:20:45;8.30;99.90
14359;DHT22;7263;49.418;11.064;2024-03-06T08:23:12;8.40;99.90
14359;DHT22;7263;49.418;11.064;2024-03-06T08:25:38;8.40;99.90
14359;DHT22;7263;49.418;11.064;2024-03-06T08:28:07;8.50;99.90
14359;DHT22;7263;49.418;11.064;2024-03-06T08:33:04;8.60;99.90
14359;DHT22;7263;49.418;11.064;2024-03-06T08:35:32;8.70;99.90
14359;DHT22;7263;49.418;11.064;2024-03-06T08:40:40;8.70;99.90
14359;DHT22;7263;49.418;11.064;2024-03-06T08:43:16;8.80;99.90
14359;DHT22;7263;49.418;11.064;2024-03-06T08:45:45;8.90;99.90
14359;DHT22;7263;49.418;11.064;2024-03-06T08:48:14;8.90;99.90
14359;DHT22;7263;49.418;11.064;2024-03-06T08:50:45;8.90;99.90
14359;DHT22;7263;49.418;11.064;2024-03-06T08:55:46;8.90;99.90
14359;DHT22;7263;49.418;11.064;2024-03-06T08:58:17;8.90;99.90
14359;DHT22;7263;49.418;11.064;2024-03-06T09:00:49;8.70;99.90
14359;DHT22;7263;49.418;11.064;2024-03-06T09:03:28;8.70;99.90
14359;DHT22;7263;49.418;11.064;2024-03-06T09:05:58;8.70;99.90
14359;DHT22;7263;49.418;11.064;2024-03-06T09:10:58;8.80;99.90
14359;DHT22;7263;49.418;11.064;2024-03-06T09:13:25;8.90;99.90
14359;DHT22;7263;49.418;11.064;2024-03-06T09:18:24;8.90;99.90
14359;DHT22;7263;49.418;11.064;2024-03-06T09:20:51;9.00;99.90
14359;DHT22;7263;49.418;11.064;2024-03-06T09:23:28;9.00;99.90
14359;DHT22;7263;49.418;11.064;2024-03-06T09:25:55;9.00;99.90
14359;DHT22;7263;49.418;11.064;2024-03-06T09:30:54;9.00;99.90
14359;DHT22;7263;49.418;11.064;2024-03-06T09:33:26;9.00;99.90
14359;DHT22;7263;49.418;11.064;2024-03-06T09:35:55;9.10;99.90
14359;DHT22;7263;49.418;11.064;2024-03-06T09:38:26;9.10;99.90
14359;DHT22;7263;49.418;11.064;2024-03-06T09:40:58;9.10;99.90
14359;DHT22;7263;49.418;11.064;2024-03-06T09:43:28;9.00;99.90
14359;DHT22;7263;49.418;11.064;2024-03-06T09:46:02;9.00;99.90
14359;DHT22;7263;49.418;11.064;2024-03-06T09:48:33;9.00;99.90
14359;DHT22;7263;49.418;11.064;2024-03-06T09:53:32;9.00;99.90
14359;DHT22;7263;49.418;11.064;2024-03-06T09:56:08;9.00;99.90
14359;DHT22;7263;49.418;11.064;2024-03-06T09:58:38;9.00;99.90
14359;DHT22;7263;49.418;11.064;2024-03-06T10:01:06;9.20;99.90
14359;DHT22;7263;49.418;11.064;2024-03-06T10:06:06;9.50;99.90
14359;DHT22;7263;49.418;11.064;2024-03-06T10:08:44;9.60;99.90
14359;DHT22;7263;49.418;11.064;2024-03-06T10:11:12;9.70;99.90
14359;DHT22;7263;49.418;11.064;2024-03-06T10:13:39;9.90;99.90
14359;DHT22;7263;49.418;11.064;2024-03-06T10:16:06;10.20;99.90
14359;DHT22;7263;49.418;11.064;2024-03-06T10:21:09;10.50;99.90
14359;DHT22;7263;49.418;11.064;2024-03-06T10:23:37;10.50;99.90
14359;DHT22;7263;49.418;11.064;2024-03-06T10:26:30;10.50;99.90
14359;DHT22;7263;49.418;11.064;2024-03-06T10:28:56;10.50;99.90
14359;DHT22;7263;49.418;11.064;2024-03-06T10:31:30;10.60;99.90
14359;DHT22;7263;49.418;11.064;2024-03-06T10:34:12;10.70;99.90
14359;DHT22;7263;49.418;11.064;2024-03-06T10:39:07;11.10;99.90
14359;DHT22;7263;49.418;11.064;2024-03-06T10:41:35;11.40;99.90
14359;DHT22;7263;49.418;11.064;2024-03-06T10:44:09;11.60;99.90
14359;DHT22;7263;49.418;11.064;2024-03-06T10:46:45;11.60;99.90
14359;DHT22;7263;49.418;11.064;2024-03-06T10:49:19;11.40;99.90
14359;DHT22;7263;49.418;11.064;2024-03-06T10:51:50;11.30;99.90
14359;DHT22;7263;49.418;11.064;2024-03-06T10:54:18;11.30;99.90
14359;DHT22;7263;49.418;11.064;2024-03-06T10:56:49;11.10;99.90
14359;DHT22;7263;49.418;11.064;2024-03-06T10:59:18;11.00;99.90
14359;DHT22;7263;49.418;11.064;2024-03-06T11:04:17;11.10;99.90
14359;DHT22;7263;49.418;11.064;2024-03-06T11:06:48;11.10;99.90
14359;DHT22;7263;49.418;11.064;2024-03-06T11:11:51;10.70;99.90
14359;DHT22;7263;49.418;11.064;2024-03-06T11:14:31;10.50;99.90
14359;DHT22;7263;49.418;11.064;2024-03-06T11:17:02;10.30;99.90
14359;DHT22;7263;49.418;11.064;2024-03-06T11:26:02;10.40;99.90
14359;DHT22;7263;49.418;11.064;2024-03-06T11:28:32;10.30;99.90
14359;DHT22;7263;49.418;11.064;2024-03-06T11:31:07;10.40;99.90
14359;DHT22;7263;49.418;11.064;2024-03-06T11:33:39;10.40;99.90
14359;DHT22;7263;49.418;11.064;2024-03-06T11:36:21;10.50;99.90
14359;DHT22;7263;49.418;11.064;2024-03-06T11:38:55;10.50;99.90
14359;DHT22;7263;49.418;11.064;2024-03-06T11:41:24;10.40;99.90
14359;DHT22;7263;49.418;11.064;2024-03-06T11:44:01;10.30;99.90
14359;DHT22;7263;49.418;11.064;2024-03-06T11:46:41;10.00;99.90
14359;DHT22;7263;49.418;11.064;2024-03-06T11:49:17;10.00;99.90
14359;DHT22;7263;49.418;11.064;2024-03-06T11:54:25;10.10;99.90
14359;DHT22;7263;49.418;11.064;2024-03-06T11:56:54;9.90;99.90
14359;DHT22;7263;49.418;11.064;2024-03-06T11:59:29;9.80;99.90
14359;DHT22;7263;49.418;11.064;2024-03-06T12:01:59;9.80;99.90
14359;DHT22;7263;49.418;11.064;2024-03-06T12:04:34;9.90;99.90
14359;DHT22;7263;49.418;11.064;2024-03-06T12:07:02;9.90;99.90
14359;DHT22;7263;49.418;11.064;2024-03-06T12:09:31;10.00;99.90
14359;DHT22;7263;49.418;11.064;2024-03-06T12:17:13;10.10;99.90
14359;DHT22;7263;49.418;11.064;2024-03-06T12:22:11;10.10;99.90
14359;DHT22;7263;49.418;11.064;2024-03-06T12:29:42;10.40;99.90
14359;DHT22;7263;49.418;11.064;2024-03-06T12:32:16;10.30;99.90
14359;DHT22;7263;49.418;11.064;2024-03-06T12:34:43;10.30;99.90
14359;DHT22;7263;49.418;11.064;2024-03-06T12:39:53;10.60;99.90
14359;DHT22;7263;49.418;11.064;2024-03-06T12:42:26;10.60;99.90
14359;DHT22;7263;49.418;11.064;2024-03-06T12:44:54;10.70;99.90
14359;DHT22;7263;49.418;11.064;2024-03-06T12:47:24;10.70;99.90
14359;DHT22;7263;49.418;11.064;2024-03-06T12:49:56;10.80;99.90
14359;DHT22;7263;49.418;11.064;2024-03-06T12:52:33;10.90;99.90
14359;DHT22;7263;49.418;11.064;2024-03-06T12:55:00;10.90;99.90
14359;DHT22;7263;49.418;11.064;2024-03-06T12:57:30;10.90;99.90
14359;DHT22;7263;49.418;11.064;2024-03-06T13:00:04;10.90;99.90
14359;DHT22;7263;49.418;11.064;2024-03-06T13:02:32;10.80;99.90
14359;DHT22;7263;49.418;11.064;2024-03-06T13:05:02;10.80;99.90
14359;DHT22;7263;49.418;11.064;2024-03-06T13:07:29;10.70;99.90
14359;DHT22;7263;49.418;11.064;2024-03-06T13:09:55;10.80;99.90
14359;DHT22;7263;49.418;11.064;2024-03-06T13:12:31;10.90;99.90
14359;DHT22;7263;49.418;11.064;2024-03-06T13:15:07;11.00;99.90
14359;DHT22;7263;49.418;11.064;2024-03-06T13:17:39;11.10;99.90
14359;DHT22;7263;49.418;11.064;2024-03-06T13:20:12;11.20;99.90
14359;DHT22;7263;49.418;11.064;2024-03-06T13:22:39;11.20;99.90
14359;DHT22;7263;49.418;11.064;2024-03-06T13:25:12;11.20;99.90
14359;DHT22;7263;49.418;11.064;2024-03-06T13:27:42;11.30;99.90
14359;DHT22;7263;49.418;11.064;2024-03-06T13:30:13;11.20;99.90
14359;DHT22;7263;49.418;11.064;2024-03-06T13:32:43;11.30;99.90
14359;DHT22;7263;49.418;11.064;2024-03-06T13:35:14;11.30;99.90
14359;DHT22;7263;49.418;11.064;2024-03-06T13:37:51;11.40;99.90
14359;DHT22;7263;49.418;11.064;2024-03-06T13:40:25;11.40;99.90
14359;DHT22;7263;49.418;11.064;2024-03-06T13:42:52;11.50;99.90
14359;DHT22;7263;49.418;11.064;2024-03-06T13:45:20;11.50;99.90
14359;DHT22;7263;49.418;11.064;2024-03-06T13:47:47;11.50;99.90
14359;DHT22;7263;49.418;11.064;2024-03-06T13:50:15;11.60;99.90
14359;DHT22;7263;49.418;11.064;2024-03-06T13:52:43;11.40;99.90
14359;DHT22;7263;49.418;11.064;2024-03-06T13:55:10;11.40;99.90
14359;DHT22;7263;49.418;11.064;2024-03-06T13:57:44;11.30;99.90
14359;DHT22;7263;49.418;11.064;2024-03-06T14:00:16;11.30;99.90
14359;DHT22;7263;49.418;11.064;2024-03-06T14:02:49;11.30;99.90
14359;DHT22;7263;49.418;11.064;2024-03-06T14:05:18;11.30;99.90
14359;DHT22;7263;49.418;11.064;2024-03-06T14:07:53;11.30;99.90
14359;DHT22;7263;49.418;11.064;2024-03-06T14:10:20;11.20;99.90
14359;DHT22;7263;49.418;11.064;2024-03-06T14:12:49;11.20;99.90
14359;DHT22;7263;49.418;11.064;2024-03-06T14:15:17;11.10;99.90
14359;DHT22;7263;49.418;11.064;2024-03-06T14:17:52;11.10;99.90
14359;DHT22;7263;49.418;11.064;2024-03-06T14:20:19;11.10;99.90
14359;DHT22;7263;49.418;11.064;2024-03-06T14:22:55;11.10;99.90
14359;DHT22;7263;49.418;11.064;2024-03-06T14:25:25;11.10;99.90
14359;DHT22;7263;49.418;11.064;2024-03-06T14:28:00;11.00;99.90
14359;DHT22;7263;49.418;11.064;2024-03-06T14:30:33;11.00;99.90
14359;DHT22;7263;49.418;11.064;2024-03-06T14:33:04;10.90;99.90
14359;DHT22;7263;49.418;11.064;2024-03-06T14:35:36;10.80;99.90
14359;DHT22;7263;49.418;11.064;2024-03-06T14:38:03;10.70;99.90
14359;DHT22;7263;49.418;11.064;2024-03-06T14:40:36;10.70;99.90
14359;DHT22;7263;49.418;11.064;2024-03-06T14:43:06;10.70;99.90
14359;DHT22;7263;49.418;11.064;2024-03-06T14:45:35;10.80;99.90
14359;DHT22;7263;49.418;11.064;2024-03-06T14:48:11;10.70;99.90
14359;DHT22;7263;49.418;11.064;2024-03-06T14:50:46;10.70;99.90
14359;DHT22;7263;49.418;11.064;2024-03-06T14:53:15;10.70;99.90
14359;DHT22;7263;49.418;11.064;2024-03-06T14:55:42;10.70;99.90
14359;DHT22;7263;49.418;11.064;2024-03-06T14:58:09;10.60;99.90
14359;DHT22;7263;49.418;11.064;2024-03-06T15:00:39;10.60;99.90
14359;DHT22;7263;49.418;11.064;2024-03-06T15:03:07;10.60;99.90
14359;DHT22;7263;49.418;11.064;2024-03-06T15:05:36;10.70;99.90
14359;DHT22;7263;49.418;11.064;2024-03-06T15:08:08;10.60;99.90
14359;DHT22;7263;49.418;11.064;2024-03-06T15:10:44;10.60;99.90
14359;DHT22;7263;49.418;11.064;2024-03-06T15:13:16;10.60;99.90
14359;DHT22;7263;49.418;11.064;2024-03-06T15:15:56;10.60;99.90
14359;DHT22;7263;49.418;11.064;2024-03-06T15:18:27;10.70;99.90
14359;DHT22;7263;49.418;11.064;2024-03-06T15:20:54;10.70;99.90
14359;DHT22;7263;49.418;11.064;2024-03-06T15:23:20;10.70;99.90
14359;DHT22;7263;49.418;11.064;2024-03-06T15:25:52;10.60;99.90
14359;DHT22;7263;49.418;11.064;2024-03-06T15:28:22;10.70;99.90
14359;DHT22;7263;49.418;11.064;2024-03-06T15:30:56;10.80;99.90
14359;DHT22;7263;49.418;11.064;2024-03-06T15:33:24;10.80;99.90
14359;DHT22;7263;49.418;11.064;2024-03-06T15:38:49;10.70;99.90
14359;DHT22;7263;49.418;11.064;2024-03-06T15:41:15;10.70;99.90
14359;DHT22;7263;49.418;11.064;2024-03-06T15:43:45;10.70;99.90
14359;DHT22;7263;49.418;11.064;2024-03-06T15:46:12;10.70;99.90
14359;DHT22;7263;49.418;11.064;2024-03-06T15:48:39;10.70;99.90
14359;DHT22;7263;49.418;11.064;2024-03-06T15:51:07;10.60;99.90
14359;DHT22;7263;49.418;11.064;2024-03-06T15:53:40;10.60;99.90
14359;DHT22;7263;49.418;11.064;2024-03-06T15:56:15;10.50;99.90
14359;DHT22;7263;49.418;11.064;2024-03-06T15:58:52;10.60;99.90
14359;DHT22;7263;49.418;11.064;2024-03-06T16:01:29;10.50;99.90
14359;DHT22;7263;49.418;11.064;2024-03-06T16:04:01;10.50;99.90
14359;DHT22;7263;49.418;11.064;2024-03-06T16:06:36;10.50;99.90
14359;DHT22;7263;49.418;11.064;2024-03-06T16:11:57;10.40;99.90
14359;DHT22;7263;49.418;11.064;2024-03-06T16:14:27;10.40;99.90
14359;DHT22;7263;49.418;11.064;2024-03-06T16:16:54;10.30;99.90
14359;DHT22;7263;49.418;11.064;2024-03-06T16:19:21;10.30;99.90
14359;DHT22;7263;49.418;11.064;2024-03-06T16:21:53;10.40;99.90
14359;DHT22;7263;49.418;11.064;2024-03-06T16:24:22;10.40;99.90
14359;DHT22;7263;49.418;11.064;2024-03-06T16:26:49;10.30;99.90
14359;DHT22;7263;49.418;11.064;2024-03-06T16:29:25;10.30;99.90
14359;DHT22;7263;49.418;11.064;2024-03-06T16:31:58;10.30;99.90
14359;DHT22;7263;49.418;11.064;2024-03-06T16:34:40;10.30;99.90
14359;DHT22;7263;49.418;11.064;2024-03-06T16:37:17;10.20;99.90
14359;DHT22;7263;49.418;11.064;2024-03-06T16:39:46;10.20;99.90
14359;DHT22;7263;49.418;11.064;2024-03-06T16:42:13;10.20;99.90
14359;DHT22;7263;49.418;11.064;2024-03-06T16:44:41;10.20;99.90
14359;DHT22;7263;49.418;11.064;2024-03-06T16:47:10;10.20;99.90
14359;DHT22;7263;49.418;11.064;2024-03-06T16:49:40;10.10;99.90
14359;DHT22;7263;49.418;11.064;2024-03-06T16:52:07;10.10;99.90
14359;DHT22;7263;49.418;11.064;2024-03-06T16:54:41;10.10;99.90
14359;DHT22;7263;49.418;11.064;2024-03-06T16:57:08;10.00;99.90
14359;DHT22;7263;49.418;11.064;2024-03-06T16:59:39;10.00;99.90
14359;DHT22;7263;49.418;11.064;2024-03-06T17:02:10;9.80;99.90
14359;DHT22;7263;49.418;11.064;2024-03-06T17:04:41;9.80;99.90
14359;DHT22;7263;49.418;11.064;2024-03-06T17:07:07;9.70;99.90
14359;DHT22;7263;49.418;11.064;2024-03-06T17:09:49;9.70;99.90